sensor_id;sensor_type;location;lat;lon;timestamp;temperature;humidity
14727;DHT22;7454;51.256;8.176;2023-07-08T00:00:12;16.10;69.50
14727;DHT22;7454;51.256;8.176;2023-07-08T00:02:45;16.10;69.60
14727;DHT22;7454;51.256;8.176;2023-07-08T00:05:11;16.10;69.70
14727;DHT22;7454;51.256;8.176;2023-07-08T00:07:38;16.00;69.70
14727;DHT22;7454;51.256;8.176;2023-07-08T00:10:10;16.00;69.70
14727;DHT22;7454;51.256;8.176;2023-07-08T00:12:36;16.00;69.60
14727;DHT22;7454;51.256;8.176;2023-07-08T00:15:01;15.90;69.70
14727;DHT22;7454;51.256;8.176;2023-07-08T00:17:27;15.90;69.80
14727;DHT22;7454;51.256;8.176;2023-07-08T00:19:53;15.80;69.90
14727;DHT22;7454;51.256;8.176;2023-07-08T00:22:22;16.10;70.10
14727;DHT22;7454;51.256;8.176;2023-07-08T00:24:50;15.90;70.00
14727;DHT22;7454;51.256;8.176;2023-07-08T00:27:16;15.80;70.00
14727;DHT22;7454;51.256;8.176;2023-07-08T00:29:43;15.70;69.90
14727;DHT22;7454;51.256;8.176;2023-07-08T00:32:12;15.80;70.00
14727;DHT22;7454;51.256;8.176;2023-07-08T00:34:40;15.70;70.10
14727;DHT22;7454;51.256;8.176;2023-07-08T00:37:13;15.70;70.10
14727;DHT22;7454;51.256;8.176;2023-07-08T00:39:39;15.70;70.10
14727;DHT22;7454;51.256;8.176;2023-07-08T00:42:18;15.60;70.10
14727;DHT22;7454;51.256;8.176;2023-07-08T00:44:47;15.70;70.20
14727;DHT22;7454;51.256;8.176;2023-07-08T00:47:14;15.60;70.20
14727;DHT22;7454;51.256;8.176;2023-07-08T00:49:45;15.60;70.20
14727;DHT22;7454;51.256;8.176;2023-07-08T00:52:22;15.60;70.30
14727;DHT22;7454;51.256;8.176;2023-07-08T00:54:53;15.60;70.20
14727;DHT22;7454;51.256;8.176;2023-07-08T00:57:24;15.60;70.20
14727;DHT22;7454;51.256;8.176;2023-07-08T00:59:59;15.60;70.20
14727;DHT22;7454;51.256;8.176;2023-07-08T01:02:34;15.60;70.20
14727;DHT22;7454;51.256;8.176;2023-07-08T01:05:05;15.60;70.20
14727;DHT22;7454;51.256;8.176;2023-07-08T01:07:33;15.40;70.20
14727;DHT22;7454;51.256;8.176;2023-07-08T01:10:01;15.50;70.30
14727;DHT22;7454;51.256;8.176;2023-07-08T01:12:31;15.50;70.30
14727;DHT22;7454;51.256;8.176;2023-07-08T01:15:00;15.50;70.30
14727;DHT22;7454;51.256;8.176;2023-07-08T01:17:28;15.40;70.30
14727;DHT22;7454;51.256;8.176;2023-07-08T01:19:58;15.40;70.40
14727;DHT22;7454;51.256;8.176;2023-07-08T01:22:31;15.40;70.40
14727;DHT22;7454;51.256;8.176;2023-07-08T01:25:00;15.30;70.30
14727;DHT22;7454;51.256;8.176;2023-07-08T01:27:30;15.30;70.50
14727;DHT22;7454;51.256;8.176;2023-07-08T01:29:59;15.30;70.60
14727;DHT22;7454;51.256;8.176;2023-07-08T01:32:31;15.30;70.50
14727;DHT22;7454;51.256;8.176;2023-07-08T01:35:02;15.20;70.50
14727;DHT22;7454;51.256;8.176;2023-07-08T01:37:34;15.20;70.50
14727;DHT22;7454;51.256;8.176;2023-07-08T01:42:46;15.10;70.50
14727;DHT22;7454;51.256;8.176;2023-07-08T01:45:13;15.10;70.50
14727;DHT22;7454;51.256;8.176;2023-07-08T01:47:44;15.10;70.40
14727;DHT22;7454;51.256;8.176;2023-07-08T01:50:17;15.10;70.50
14727;DHT22;7454;51.256;8.176;2023-07-08T01:52:44;15.00;70.50
14727;DHT22;7454;51.256;8.176;2023-07-08T01:55:09;15.00;70.50
14727;DHT22;7454;51.256;8.176;2023-07-08T01:57:35;15.00;70.60
14727;DHT22;7454;51.256;8.176;2023-07-08T02:00:02;15.00;70.50
14727;DHT22;7454;51.256;8.176;2023-07-08T02:02:38;15.00;70.60
14727;DHT22;7454;51.256;8.176;2023-07-08T02:05:05;14.90;70.70
14727;DHT22;7454;51.256;8.176;2023-07-08T02:07:31;14.90;70.50
14727;DHT22;7454;51.256;8.176;2023-07-08T02:09:58;14.90;70.50
14727;DHT22;7454;51.256;8.176;2023-07-08T02:12:24;14.80;70.40
14727;DHT22;7454;51.256;8.176;2023-07-08T02:14:50;14.80;70.30
14727;DHT22;7454;51.256;8.176;2023-07-08T02:17:15;14.80;70.40
14727;DHT22;7454;51.256;8.176;2023-07-08T02:19:43;14.80;70.30
14727;DHT22;7454;51.256;8.176;2023-07-08T02:22:09;14.80;70.50
14727;DHT22;7454;51.256;8.176;2023-07-08T02:24:38;14.70;70.40
14727;DHT22;7454;51.256;8.176;2023-07-08T02:27:07;14.70;70.50
14727;DHT22;7454;51.256;8.176;2023-07-08T02:29:33;14.90;70.70
14727;DHT22;7454;51.256;8.176;2023-07-08T02:31:59;14.70;70.70
14727;DHT22;7454;51.256;8.176;2023-07-08T02:34:24;14.50;70.50
14727;DHT22;7454;51.256;8.176;2023-07-08T02:36:51;14.60;70.60
14727;DHT22;7454;51.256;8.176;2023-07-08T02:39:17;14.50;70.60
14727;DHT22;7454;51.256;8.176;2023-07-08T02:41:43;14.50;70.70
14727;DHT22;7454;51.256;8.176;2023-07-08T02:44:09;14.50;70.80
14727;DHT22;7454;51.256;8.176;2023-07-08T02:46:36;14.50;70.70
14727;DHT22;7454;51.256;8.176;2023-07-08T02:49:02;14.50;70.70
14727;DHT22;7454;51.256;8.176;2023-07-08T02:51:31;14.40;70.70
14727;DHT22;7454;51.256;8.176;2023-07-08T02:53:57;14.50;70.90
14727;DHT22;7454;51.256;8.176;2023-07-08T02:56:22;14.40;70.80
14727;DHT22;7454;51.256;8.176;2023-07-08T02:58:48;14.40;70.80
14727;DHT22;7454;51.256;8.176;2023-07-08T03:01:17;14.40;70.80
14727;DHT22;7454;51.256;8.176;2023-07-08T03:03:44;14.60;70.70
14727;DHT22;7454;51.256;8.176;2023-07-08T03:06:10;14.60;70.80
14727;DHT22;7454;51.256;8.176;2023-07-08T03:08:36;14.30;70.70
14727;DHT22;7454;51.256;8.176;2023-07-08T03:11:07;14.40;70.80
14727;DHT22;7454;51.256;8.176;2023-07-08T03:13:35;14.30;70.90
14727;DHT22;7454;51.256;8.176;2023-07-08T03:16:01;14.40;70.90
14727;DHT22;7454;51.256;8.176;2023-07-08T03:18:29;14.30;70.90
14727;DHT22;7454;51.256;8.176;2023-07-08T03:20:55;14.40;70.90
14727;DHT22;7454;51.256;8.176;2023-07-08T03:23:22;14.30;71.00
14727;DHT22;7454;51.256;8.176;2023-07-08T03:25:50;14.40;71.00
14727;DHT22;7454;51.256;8.176;2023-07-08T03:28:17;14.30;71.00
14727;DHT22;7454;51.256;8.176;2023-07-08T03:30:44;14.30;70.90
14727;DHT22;7454;51.256;8.176;2023-07-08T03:33:11;14.30;71.00
14727;DHT22;7454;51.256;8.176;2023-07-08T03:35:38;14.30;71.00
14727;DHT22;7454;51.256;8.176;2023-07-08T03:38:04;14.30;71.10
14727;DHT22;7454;51.256;8.176;2023-07-08T03:40:30;14.30;71.00
14727;DHT22;7454;51.256;8.176;2023-07-08T03:42:56;14.30;71.00
14727;DHT22;7454;51.256;8.176;2023-07-08T03:45:24;14.40;71.00
14727;DHT22;7454;51.256;8.176;2023-07-08T03:47:50;14.40;71.00
14727;DHT22;7454;51.256;8.176;2023-07-08T03:50:17;14.30;71.00
14727;DHT22;7454;51.256;8.176;2023-07-08T03:52:45;14.30;71.00
14727;DHT22;7454;51.256;8.176;2023-07-08T03:55:11;14.40;71.00
14727;DHT22;7454;51.256;8.176;2023-07-08T03:57:38;14.30;71.10
14727;DHT22;7454;51.256;8.176;2023-07-08T04:00:04;14.30;71.10
14727;DHT22;7454;51.256;8.176;2023-07-08T04:02:39;14.30;71.10
14727;DHT22;7454;51.256;8.176;2023-07-08T04:05:25;14.30;71.10
14727;DHT22;7454;51.256;8.176;2023-07-08T04:07:52;14.30;71.00
14727;DHT22;7454;51.256;8.176;2023-07-08T04:10:18;14.20;71.10
14727;DHT22;7454;51.256;8.176;2023-07-08T04:12:44;14.30;71.10
14727;DHT22;7454;51.256;8.176;2023-07-08T04:15:10;14.30;71.20
14727;DHT22;7454;51.256;8.176;2023-07-08T04:17:45;14.30;71.10
14727;DHT22;7454;51.256;8.176;2023-07-08T04:20:13;14.40;71.20
14727;DHT22;7454;51.256;8.176;2023-07-08T04:22:40;14.40;71.30
14727;DHT22;7454;51.256;8.176;2023-07-08T04:25:06;14.40;71.20
14727;DHT22;7454;51.256;8.176;2023-07-08T04:27:32;14.40;71.20
14727;DHT22;7454;51.256;8.176;2023-07-08T04:29:57;14.40;71.20
14727;DHT22;7454;51.256;8.176;2023-07-08T04:32:23;14.50;71.20
14727;DHT22;7454;51.256;8.176;2023-07-08T04:34:51;14.50;71.30
14727;DHT22;7454;51.256;8.176;2023-07-08T04:37:17;14.50;71.30
14727;DHT22;7454;51.256;8.176;2023-07-08T04:39:42;14.50;71.30
14727;DHT22;7454;51.256;8.176;2023-07-08T04:42:08;14.50;71.40
14727;DHT22;7454;51.256;8.176;2023-07-08T04:44:34;14.60;71.40
14727;DHT22;7454;51.256;8.176;2023-07-08T04:47:00;14.60;71.40
14727;DHT22;7454;51.256;8.176;2023-07-08T04:49:26;14.60;71.40
14727;DHT22;7454;51.256;8.176;2023-07-08T04:51:59;14.70;71.50
14727;DHT22;7454;51.256;8.176;2023-07-08T04:54:25;14.70;71.50
14727;DHT22;7454;51.256;8.176;2023-07-08T04:56:50;14.80;71.40
14727;DHT22;7454;51.256;8.176;2023-07-08T04:59:19;14.80;71.50
14727;DHT22;7454;51.256;8.176;2023-07-08T05:01:46;14.80;71.50
14727;DHT22;7454;51.256;8.176;2023-07-08T05:04:13;14.80;71.60
14727;DHT22;7454;51.256;8.176;2023-07-08T05:06:39;14.90;71.60
14727;DHT22;7454;51.256;8.176;2023-07-08T05:09:05;14.80;71.50
14727;DHT22;7454;51.256;8.176;2023-07-08T05:11:31;14.90;71.60
14727;DHT22;7454;51.256;8.176;2023-07-08T05:13:58;14.90;71.50
14727;DHT22;7454;51.256;8.176;2023-07-08T05:16:24;14.90;71.60
14727;DHT22;7454;51.256;8.176;2023-07-08T05:18:49;14.90;71.70
14727;DHT22;7454;51.256;8.176;2023-07-08T05:21:15;15.00;71.70
14727;DHT22;7454;51.256;8.176;2023-07-08T05:23:43;15.10;71.70
14727;DHT22;7454;51.256;8.176;2023-07-08T05:26:09;15.10;71.80
14727;DHT22;7454;51.256;8.176;2023-07-08T05:28:35;15.00;71.60
14727;DHT22;7454;51.256;8.176;2023-07-08T05:31:01;15.00;71.60
14727;DHT22;7454;51.256;8.176;2023-07-08T05:33:28;15.10;71.60
14727;DHT22;7454;51.256;8.176;2023-07-08T05:35:55;15.00;71.50
14727;DHT22;7454;51.256;8.176;2023-07-08T05:38:22;15.00;71.60
14727;DHT22;7454;51.256;8.176;2023-07-08T05:40:53;14.90;71.50
14727;DHT22;7454;51.256;8.176;2023-07-08T05:43:20;15.00;71.70
14727;DHT22;7454;51.256;8.176;2023-07-08T05:45:46;15.00;71.70
14727;DHT22;7454;51.256;8.176;2023-07-08T05:48:11;14.80;71.70
14727;DHT22;7454;51.256;8.176;2023-07-08T05:50:42;14.90;71.70
14727;DHT22;7454;51.256;8.176;2023-07-08T05:53:10;14.90;71.80
14727;DHT22;7454;51.256;8.176;2023-07-08T05:55:36;14.90;71.80
14727;DHT22;7454;51.256;8.176;2023-07-08T05:58:02;14.90;71.80
14727;DHT22;7454;51.256;8.176;2023-07-08T06:00:28;14.90;71.90
14727;DHT22;7454;51.256;8.176;2023-07-08T06:02:54;15.10;71.80
14727;DHT22;7454;51.256;8.176;2023-07-08T06:05:20;14.90;71.80
14727;DHT22;7454;51.256;8.176;2023-07-08T06:07:45;15.10;71.90
14727;DHT22;7454;51.256;8.176;2023-07-08T06:10:11;15.00;72.00
14727;DHT22;7454;51.256;8.176;2023-07-08T06:12:37;15.10;72.00
14727;DHT22;7454;51.256;8.176;2023-07-08T06:15:03;15.10;72.00
14727;DHT22;7454;51.256;8.176;2023-07-08T06:17:29;15.20;72.10
14727;DHT22;7454;51.256;8.176;2023-07-08T06:19:54;15.30;72.10
14727;DHT22;7454;51.256;8.176;2023-07-08T06:22:20;15.40;72.20
14727;DHT22;7454;51.256;8.176;2023-07-08T06:24:46;15.50;72.10
14727;DHT22;7454;51.256;8.176;2023-07-08T06:27:13;15.80;72.30
14727;DHT22;7454;51.256;8.176;2023-07-08T06:29:39;15.60;72.20
14727;DHT22;7454;51.256;8.176;2023-07-08T06:32:05;15.90;72.20
14727;DHT22;7454;51.256;8.176;2023-07-08T06:34:32;15.90;72.20
14727;DHT22;7454;51.256;8.176;2023-07-08T06:36:57;16.20;72.40
14727;DHT22;7454;51.256;8.176;2023-07-08T06:39:23;16.20;72.40
14727;DHT22;7454;51.256;8.176;2023-07-08T06:41:49;16.30;72.40
14727;DHT22;7454;51.256;8.176;2023-07-08T06:44:16;16.50;72.50
14727;DHT22;7454;51.256;8.176;2023-07-08T06:46:42;16.60;72.40
14727;DHT22;7454;51.256;8.176;2023-07-08T06:49:08;16.70;72.40
14727;DHT22;7454;51.256;8.176;2023-07-08T06:51:35;16.90;72.40
14727;DHT22;7454;51.256;8.176;2023-07-08T06:54:01;17.00;72.60
14727;DHT22;7454;51.256;8.176;2023-07-08T06:56:30;17.20;72.80
14727;DHT22;7454;51.256;8.176;2023-07-08T06:58:56;17.40;72.80
14727;DHT22;7454;51.256;8.176;2023-07-08T07:01:22;17.50;72.90
14727;DHT22;7454;51.256;8.176;2023-07-08T07:03:49;17.70;73.10
14727;DHT22;7454;51.256;8.176;2023-07-08T07:06:15;17.80;73.20
14727;DHT22;7454;51.256;8.176;2023-07-08T07:08:40;18.00;73.10
14727;DHT22;7454;51.256;8.176;2023-07-08T07:11:06;18.20;73.30
14727;DHT22;7454;51.256;8.176;2023-07-08T07:13:32;18.30;73.10
14727;DHT22;7454;51.256;8.176;2023-07-08T07:15:58;18.50;73.10
14727;DHT22;7454;51.256;8.176;2023-07-08T07:18:24;18.70;73.40
14727;DHT22;7454;51.256;8.176;2023-07-08T07:20:50;18.80;73.50
14727;DHT22;7454;51.256;8.176;2023-07-08T07:23:18;19.00;73.80
14727;DHT22;7454;51.256;8.176;2023-07-08T07:25:45;19.10;73.90
14727;DHT22;7454;51.256;8.176;2023-07-08T07:28:13;19.30;74.00
14727;DHT22;7454;51.256;8.176;2023-07-08T07:30:45;19.50;73.90
14727;DHT22;7454;51.256;8.176;2023-07-08T07:33:11;19.60;73.40
14727;DHT22;7454;51.256;8.176;2023-07-08T07:35:44;19.70;73.40
14727;DHT22;7454;51.256;8.176;2023-07-08T07:38:10;19.90;73.30
14727;DHT22;7454;51.256;8.176;2023-07-08T07:40:36;20.10;72.70
14727;DHT22;7454;51.256;8.176;2023-07-08T07:43:04;20.30;72.60
14727;DHT22;7454;51.256;8.176;2023-07-08T07:45:30;20.60;73.00
14727;DHT22;7454;51.256;8.176;2023-07-08T07:47:56;20.70;71.80
14727;DHT22;7454;51.256;8.176;2023-07-08T07:50:22;20.90;72.30
14727;DHT22;7454;51.256;8.176;2023-07-08T07:52:47;21.20;71.70
14727;DHT22;7454;51.256;8.176;2023-07-08T07:55:13;21.30;71.40
14727;DHT22;7454;51.256;8.176;2023-07-08T07:57:39;21.50;71.20
14727;DHT22;7454;51.256;8.176;2023-07-08T08:00:07;21.70;71.40
14727;DHT22;7454;51.256;8.176;2023-07-08T08:02:40;21.80;72.20
14727;DHT22;7454;51.256;8.176;2023-07-08T08:05:06;21.90;71.40
14727;DHT22;7454;51.256;8.176;2023-07-08T08:07:32;22.00;71.70
14727;DHT22;7454;51.256;8.176;2023-07-08T08:09:58;22.10;71.40
14727;DHT22;7454;51.256;8.176;2023-07-08T08:12:24;22.10;70.40
14727;DHT22;7454;51.256;8.176;2023-07-08T08:14:50;22.30;70.20
14727;DHT22;7454;51.256;8.176;2023-07-08T08:17:16;22.30;69.20
14727;DHT22;7454;51.256;8.176;2023-07-08T08:19:42;22.40;69.60
14727;DHT22;7454;51.256;8.176;2023-07-08T08:22:08;22.50;69.10
14727;DHT22;7454;51.256;8.176;2023-07-08T08:24:33;22.70;69.40
14727;DHT22;7454;51.256;8.176;2023-07-08T08:26:59;22.80;69.20
14727;DHT22;7454;51.256;8.176;2023-07-08T08:29:25;22.90;69.80
14727;DHT22;7454;51.256;8.176;2023-07-08T08:31:51;23.10;69.70
14727;DHT22;7454;51.256;8.176;2023-07-08T08:34:17;23.20;68.70
14727;DHT22;7454;51.256;8.176;2023-07-08T08:36:43;23.30;68.80
14727;DHT22;7454;51.256;8.176;2023-07-08T08:39:08;23.40;68.90
14727;DHT22;7454;51.256;8.176;2023-07-08T08:41:35;23.40;68.70
14727;DHT22;7454;51.256;8.176;2023-07-08T08:44:02;23.50;68.30
14727;DHT22;7454;51.256;8.176;2023-07-08T08:46:41;23.50;68.30
14727;DHT22;7454;51.256;8.176;2023-07-08T08:51:59;23.70;67.90
14727;DHT22;7454;51.256;8.176;2023-07-08T08:54:25;23.80;67.70
14727;DHT22;7454;51.256;8.176;2023-07-08T08:57:09;23.80;67.70
14727;DHT22;7454;51.256;8.176;2023-07-08T08:59:42;23.90;67.70
14727;DHT22;7454;51.256;8.176;2023-07-08T09:02:21;23.90;67.90
14727;DHT22;7454;51.256;8.176;2023-07-08T09:04:52;24.00;67.70
14727;DHT22;7454;51.256;8.176;2023-07-08T09:07:18;24.00;67.20
14727;DHT22;7454;51.256;8.176;2023-07-08T09:10:02;24.10;67.50
14727;DHT22;7454;51.256;8.176;2023-07-08T09:12:30;24.10;67.10
14727;DHT22;7454;51.256;8.176;2023-07-08T09:14:57;24.10;67.00
14727;DHT22;7454;51.256;8.176;2023-07-08T09:17:28;24.10;67.10
14727;DHT22;7454;51.256;8.176;2023-07-08T09:22:46;24.10;66.90
14727;DHT22;7454;51.256;8.176;2023-07-08T09:27:53;24.20;66.80
14727;DHT22;7454;51.256;8.176;2023-07-08T09:30:22;24.20;66.70
14727;DHT22;7454;51.256;8.176;2023-07-08T09:32:49;24.30;66.60
14727;DHT22;7454;51.256;8.176;2023-07-08T09:35:28;24.20;66.80
14727;DHT22;7454;51.256;8.176;2023-07-08T09:38:08;24.20;66.80
14727;DHT22;7454;51.256;8.176;2023-07-08T09:40:35;24.40;66.90
14727;DHT22;7454;51.256;8.176;2023-07-08T09:43:43;24.40;66.80
14727;DHT22;7454;51.256;8.176;2023-07-08T09:45:59;24.40;66.50
14727;DHT22;7454;51.256;8.176;2023-07-08T09:48:26;24.50;66.70
14727;DHT22;7454;51.256;8.176;2023-07-08T09:50:54;24.60;66.70
14727;DHT22;7454;51.256;8.176;2023-07-08T09:53:22;24.60;66.90
14727;DHT22;7454;51.256;8.176;2023-07-08T09:55:49;24.60;66.50
14727;DHT22;7454;51.256;8.176;2023-07-08T09:58:25;24.60;66.50
14727;DHT22;7454;51.256;8.176;2023-07-08T10:01:15;24.60;66.60
14727;DHT22;7454;51.256;8.176;2023-07-08T10:03:46;24.60;66.50
14727;DHT22;7454;51.256;8.176;2023-07-08T10:06:22;24.70;66.20
14727;DHT22;7454;51.256;8.176;2023-07-08T10:08:50;24.70;66.50
14727;DHT22;7454;51.256;8.176;2023-07-08T10:11:25;24.80;66.40
14727;DHT22;7454;51.256;8.176;2023-07-08T10:13:53;24.80;66.40
14727;DHT22;7454;51.256;8.176;2023-07-08T10:18:48;24.80;66.30
14727;DHT22;7454;51.256;8.176;2023-07-08T10:21:19;24.80;66.50
14727;DHT22;7454;51.256;8.176;2023-07-08T10:26:41;24.80;66.50
14727;DHT22;7454;51.256;8.176;2023-07-08T10:40:08;25.00;66.20
14727;DHT22;7454;51.256;8.176;2023-07-08T10:45:35;25.10;66.10
14727;DHT22;7454;51.256;8.176;2023-07-08T10:48:13;25.10;66.00
14727;DHT22;7454;51.256;8.176;2023-07-08T10:50:57;25.00;66.20
14727;DHT22;7454;51.256;8.176;2023-07-08T10:53:35;25.10;65.90
14727;DHT22;7454;51.256;8.176;2023-07-08T10:56:14;25.00;65.50
14727;DHT22;7454;51.256;8.176;2023-07-08T10:58:54;25.00;65.40
14727;DHT22;7454;51.256;8.176;2023-07-08T11:04:38;25.00;65.70
14727;DHT22;7454;51.256;8.176;2023-07-08T11:10:43;25.10;65.50
14727;DHT22;7454;51.256;8.176;2023-07-08T11:21:13;25.20;65.70
14727;DHT22;7454;51.256;8.176;2023-07-08T11:26:31;25.20;65.40
14727;DHT22;7454;51.256;8.176;2023-07-08T11:29:00;25.30;65.80
14727;DHT22;7454;51.256;8.176;2023-07-08T11:31:28;25.20;65.70
14727;DHT22;7454;51.256;8.176;2023-07-08T11:33:59;25.30;65.90
14727;DHT22;7454;51.256;8.176;2023-07-08T11:36:26;25.30;66.10
14727;DHT22;7454;51.256;8.176;2023-07-08T11:38:53;25.40;65.60
14727;DHT22;7454;51.256;8.176;2023-07-08T11:41:21;25.40;65.50
14727;DHT22;7454;51.256;8.176;2023-07-08T11:46:21;25.50;65.50
14727;DHT22;7454;51.256;8.176;2023-07-08T11:49:00;25.60;65.60
14727;DHT22;7454;51.256;8.176;2023-07-08T11:51:34;25.60;65.20
14727;DHT22;7454;51.256;8.176;2023-07-08T11:57:06;25.70;65.10
14727;DHT22;7454;51.256;8.176;2023-07-08T11:59:38;25.70;65.20
14727;DHT22;7454;51.256;8.176;2023-07-08T12:02:38;25.80;65.10
14727;DHT22;7454;51.256;8.176;2023-07-08T12:05:02;25.80;65.20
14727;DHT22;7454;51.256;8.176;2023-07-08T12:07:41;25.70;65.00
14727;DHT22;7454;51.256;8.176;2023-07-08T12:12:43;25.80;65.20
14727;DHT22;7454;51.256;8.176;2023-07-08T12:15:12;25.70;64.90
14727;DHT22;7454;51.256;8.176;2023-07-08T12:17:51;25.70;64.50
14727;DHT22;7454;51.256;8.176;2023-07-08T12:20:19;25.70;64.40
14727;DHT22;7454;51.256;8.176;2023-07-08T12:22:51;25.70;64.70
14727;DHT22;7454;51.256;8.176;2023-07-08T12:25:19;25.80;64.90
14727;DHT22;7454;51.256;8.176;2023-07-08T12:27:48;25.80;64.60
14727;DHT22;7454;51.256;8.176;2023-07-08T12:30:15;25.90;64.90
14727;DHT22;7454;51.256;8.176;2023-07-08T12:32:41;25.90;64.80
14727;DHT22;7454;51.256;8.176;2023-07-08T12:35:22;25.90;64.80
14727;DHT22;7454;51.256;8.176;2023-07-08T12:37:50;25.90;64.80
14727;DHT22;7454;51.256;8.176;2023-07-08T12:40:19;26.00;64.60
14727;DHT22;7454;51.256;8.176;2023-07-08T12:42:50;26.10;64.70
14727;DHT22;7454;51.256;8.176;2023-07-08T12:45:17;26.10;65.00
14727;DHT22;7454;51.256;8.176;2023-07-08T12:47:44;26.20;64.70
14727;DHT22;7454;51.256;8.176;2023-07-08T12:50:11;26.20;64.90
14727;DHT22;7454;51.256;8.176;2023-07-08T12:52:44;26.20;64.70
14727;DHT22;7454;51.256;8.176;2023-07-08T12:55:11;26.20;64.70
14727;DHT22;7454;51.256;8.176;2023-07-08T12:57:39;26.20;64.90
14727;DHT22;7454;51.256;8.176;2023-07-08T13:00:10;26.30;65.00
14727;DHT22;7454;51.256;8.176;2023-07-08T13:02:38;26.30;64.50
14727;DHT22;7454;51.256;8.176;2023-07-08T13:05:04;26.40;64.80
14727;DHT22;7454;51.256;8.176;2023-07-08T13:07:33;26.40;64.80
14727;DHT22;7454;51.256;8.176;2023-07-08T13:10:01;26.50;65.20
14727;DHT22;7454;51.256;8.176;2023-07-08T13:12:28;26.60;65.10
14727;DHT22;7454;51.256;8.176;2023-07-08T13:14:54;26.50;65.00
14727;DHT22;7454;51.256;8.176;2023-07-08T13:17:22;26.60;65.00
14727;DHT22;7454;51.256;8.176;2023-07-08T13:19:48;26.50;64.70
14727;DHT22;7454;51.256;8.176;2023-07-08T13:22:15;26.60;64.70
14727;DHT22;7454;51.256;8.176;2023-07-08T13:24:43;26.60;64.70
14727;DHT22;7454;51.256;8.176;2023-07-08T13:27:16;26.70;64.90
14727;DHT22;7454;51.256;8.176;2023-07-08T13:29:47;26.70;64.40
14727;DHT22;7454;51.256;8.176;2023-07-08T13:32:13;26.70;64.40
14727;DHT22;7454;51.256;8.176;2023-07-08T13:34:40;26.70;64.70
14727;DHT22;7454;51.256;8.176;2023-07-08T13:37:10;26.80;64.50
14727;DHT22;7454;51.256;8.176;2023-07-08T13:39:38;26.80;64.40
14727;DHT22;7454;51.256;8.176;2023-07-08T13:42:08;26.80;64.70
14727;DHT22;7454;51.256;8.176;2023-07-08T13:44:34;26.70;64.80
14727;DHT22;7454;51.256;8.176;2023-07-08T13:47:00;26.80;64.70
14727;DHT22;7454;51.256;8.176;2023-07-08T13:49:28;26.80;64.70
14727;DHT22;7454;51.256;8.176;2023-07-08T13:52:14;26.80;64.90
14727;DHT22;7454;51.256;8.176;2023-07-08T13:57:14;26.80;64.20
14727;DHT22;7454;51.256;8.176;2023-07-08T13:59:41;26.80;64.50
14727;DHT22;7454;51.256;8.176;2023-07-08T14:02:20;26.90;64.60
14727;DHT22;7454;51.256;8.176;2023-07-08T14:04:52;26.80;64.80
14727;DHT22;7454;51.256;8.176;2023-07-08T14:07:23;26.80;64.80
14727;DHT22;7454;51.256;8.176;2023-07-08T14:09:51;26.80;64.50
14727;DHT22;7454;51.256;8.176;2023-07-08T14:12:18;26.90;64.50
14727;DHT22;7454;51.256;8.176;2023-07-08T14:14:43;26.90;64.10
14727;DHT22;7454;51.256;8.176;2023-07-08T14:17:11;26.90;63.90
14727;DHT22;7454;51.256;8.176;2023-07-08T14:19:38;26.90;64.50
14727;DHT22;7454;51.256;8.176;2023-07-08T14:24:32;27.00;64.40
14727;DHT22;7454;51.256;8.176;2023-07-08T14:26:57;27.00;64.60
14727;DHT22;7454;51.256;8.176;2023-07-08T14:29:23;27.00;64.40
14727;DHT22;7454;51.256;8.176;2023-07-08T14:31:49;27.00;64.30
14727;DHT22;7454;51.256;8.176;2023-07-08T14:34:17;27.10;64.20
14727;DHT22;7454;51.256;8.176;2023-07-08T14:36:51;27.10;64.20
14727;DHT22;7454;51.256;8.176;2023-07-08T14:39:17;27.10;64.40
14727;DHT22;7454;51.256;8.176;2023-07-08T14:41:44;27.00;64.30
14727;DHT22;7454;51.256;8.176;2023-07-08T14:44:32;27.00;64.70
14727;DHT22;7454;51.256;8.176;2023-07-08T14:46:57;27.00;63.90
14727;DHT22;7454;51.256;8.176;2023-07-08T14:49:24;27.00;64.20
14727;DHT22;7454;51.256;8.176;2023-07-08T14:51:50;27.00;64.50
14727;DHT22;7454;51.256;8.176;2023-07-08T14:54:19;27.10;64.30
14727;DHT22;7454;51.256;8.176;2023-07-08T14:56:46;27.00;64.50
14727;DHT22;7454;51.256;8.176;2023-07-08T14:59:13;27.00;64.40
14727;DHT22;7454;51.256;8.176;2023-07-08T15:01:41;27.10;64.60
14727;DHT22;7454;51.256;8.176;2023-07-08T15:04:10;27.10;64.60
14727;DHT22;7454;51.256;8.176;2023-07-08T15:06:37;27.20;64.40
14727;DHT22;7454;51.256;8.176;2023-07-08T15:09:12;27.20;64.20
14727;DHT22;7454;51.256;8.176;2023-07-08T15:11:39;27.10;64.20
14727;DHT22;7454;51.256;8.176;2023-07-08T15:14:16;27.20;64.00
14727;DHT22;7454;51.256;8.176;2023-07-08T15:16:44;27.20;64.30
14727;DHT22;7454;51.256;8.176;2023-07-08T15:19:11;27.20;64.20
14727;DHT22;7454;51.256;8.176;2023-07-08T15:21:37;27.20;64.00
14727;DHT22;7454;51.256;8.176;2023-07-08T15:24:08;27.30;64.20
14727;DHT22;7454;51.256;8.176;2023-07-08T15:26:39;27.30;64.10
14727;DHT22;7454;51.256;8.176;2023-07-08T15:29:08;27.30;64.00
14727;DHT22;7454;51.256;8.176;2023-07-08T15:31:38;27.30;64.70
14727;DHT22;7454;51.256;8.176;2023-07-08T15:34:07;27.20;64.30
14727;DHT22;7454;51.256;8.176;2023-07-08T15:36:37;27.20;64.40
14727;DHT22;7454;51.256;8.176;2023-07-08T15:39:03;27.20;64.30
14727;DHT22;7454;51.256;8.176;2023-07-08T15:41:29;27.20;64.40
14727;DHT22;7454;51.256;8.176;2023-07-08T15:43:55;27.20;64.00
14727;DHT22;7454;51.256;8.176;2023-07-08T15:46:22;27.10;64.30
14727;DHT22;7454;51.256;8.176;2023-07-08T15:48:51;27.10;64.00
14727;DHT22;7454;51.256;8.176;2023-07-08T15:51:17;27.10;64.00
14727;DHT22;7454;51.256;8.176;2023-07-08T15:53:44;27.20;64.00
14727;DHT22;7454;51.256;8.176;2023-07-08T15:56:10;27.10;64.20
14727;DHT22;7454;51.256;8.176;2023-07-08T15:58:37;27.10;64.00
14727;DHT22;7454;51.256;8.176;2023-07-08T16:01:03;27.10;64.20
14727;DHT22;7454;51.256;8.176;2023-07-08T16:03:30;27.00;63.90
14727;DHT22;7454;51.256;8.176;2023-07-08T16:05:59;27.00;63.80
14727;DHT22;7454;51.256;8.176;2023-07-08T16:08:25;27.00;64.20
14727;DHT22;7454;51.256;8.176;2023-07-08T16:10:57;27.00;64.30
14727;DHT22;7454;51.256;8.176;2023-07-08T16:13:29;27.00;64.30
14727;DHT22;7454;51.256;8.176;2023-07-08T16:15:57;27.00;64.30
14727;DHT22;7454;51.256;8.176;2023-07-08T16:18:22;27.00;64.20
14727;DHT22;7454;51.256;8.176;2023-07-08T16:20:48;26.90;64.20
14727;DHT22;7454;51.256;8.176;2023-07-08T16:23:14;26.90;64.40
14727;DHT22;7454;51.256;8.176;2023-07-08T16:25:44;27.00;64.50
14727;DHT22;7454;51.256;8.176;2023-07-08T16:28:59;27.00;64.70
14727;DHT22;7454;51.256;8.176;2023-07-08T16:31:15;27.00;64.30
14727;DHT22;7454;51.256;8.176;2023-07-08T16:33:44;27.00;64.50
14727;DHT22;7454;51.256;8.176;2023-07-08T16:36:12;27.00;64.10
14727;DHT22;7454;51.256;8.176;2023-07-08T16:38:41;27.10;64.20
14727;DHT22;7454;51.256;8.176;2023-07-08T16:41:11;27.10;64.20
14727;DHT22;7454;51.256;8.176;2023-07-08T16:43:38;27.10;64.20
14727;DHT22;7454;51.256;8.176;2023-07-08T16:46:04;27.00;64.60
14727;DHT22;7454;51.256;8.176;2023-07-08T16:48:30;27.00;64.80
14727;DHT22;7454;51.256;8.176;2023-07-08T16:50:56;27.00;64.60
14727;DHT22;7454;51.256;8.176;2023-07-08T16:53:22;27.00;64.50